Time;durP1;ratioP1;P1;durP2;ratioP2;P2;SDS_P1;SDS_P2;PMS_P1;PMS_P2;Temp;Humidity;BMP_temperature;BMP_pressure;BME280_temperature;BME280_humidity;BME280_pressure;Samples;Min_cycle;Max_cycle;Signal;HPM_P1;HPM_P2
2023/03/14 00:01:28;;;;;;;;;;;;;;;26.76;37.10;93061.47;4897439;29;7844;-62
2023/03/14 00:04:05;;;;;;;;;;;;;;;26.77;37.32;93067.72;4913815;29;7359;-62
2023/03/14 00:06:46;;;;;;;;;;;;;;;26.76;37.01;93074.50;4914396;29;9123;-62
2023/03/14 00:09:13;;;;;;;;;;;;;;;26.76;37.13;93080.03;4892132;29;9067;-62
2023/03/14 00:12:09;;;;;;;;;;;;;;;26.78;36.86;93086.47;4919758;29;8434;-62
2023/03/14 00:14:46;;;;;;;;;;;;;;;26.79;36.72;93092.72;4855448;29;9109;-62
2023/03/14 00:17:13;;;;;;;;;;;;;;;26.80;36.94;93094.19;4875659;29;7305;-62
2023/03/14 00:19:39;;;;;;;;;;;;;;;26.83;36.94;93093.09;4874406;29;7100;-62
2023/03/14 00:22:10;;;;;;;;;;;;;;;26.77;36.47;93076.00;4866499;29;9510;-62
2023/03/14 00:24:47;;;;;;;;;;;;;;;26.80;37.20;93077.63;4874442;29;9352;-62
2023/03/14 00:27:15;;;;;;;;;;;;;;;26.79;36.65;93070.66;4906763;29;9057;-62
2023/03/14 00:29:44;;;;;;;;;;;;;;;26.77;37.02;93062.22;4914752;29;8731;-62
2023/03/14 00:32:10;;;;;;;;;;;;;;;26.79;36.67;93056.88;4914810;29;9910;-62
2023/03/14 00:35:12;;;;;;;;;;;;;;;26.79;37.16;93032.03;4914806;29;9077;-62
2023/03/14 00:37:42;;;;;;;;;;;;;;;26.79;36.80;93043.09;4870503;29;7043;-63
2023/03/14 00:40:26;;;;;;;;;;;;;;;26.76;36.55;93022.84;4879726;29;7009;-62
2023/03/14 00:43:24;;;;;;;;;;;;;;;26.80;36.83;93008.69;4879925;29;7255;-62
2023/03/14 00:46:03;;;;;;;;;;;;;;;26.78;36.76;92992.69;4857260;29;7201;-62
2023/03/14 00:48:49;;;;;;;;;;;;;;;26.78;37.23;92986.44;4855384;29;6955;-62
2023/03/14 00:51:15;;;;;;;;;;;;;;;26.77;37.00;92968.41;4863202;29;9371;-62
2023/03/14 00:53:43;;;;;;;;;;;;;;;26.77;36.68;92957.38;4873546;29;7242;-62
2023/03/14 00:56:18;;;;;;;;;;;;;;;26.75;36.44;92941.38;4874071;29;7514;-62
2023/03/14 00:58:46;;;;;;;;;;;;;;;26.78;36.99;92936.78;4871613;29;7032;-62
2023/03/14 01:01:18;;;;;;;;;;;;;;;26.76;36.59;92897.97;4895088;29;9047;-63
2023/03/14 01:03:59;;;;;;;;;;;;;;;26.78;36.93;92917.47;4880135;29;9035;-62
2023/03/14 01:06:29;;;;;;;;;;;;;;;26.77;36.71;92916.72;4876210;29;7181;-62
2023/03/14 01:08:59;;;;;;;;;;;;;;;26.78;36.73;92931.25;4874251;29;8725;-62
2023/03/14 01:11:33;;;;;;;;;;;;;;;26.79;36.39;92952.06;4875981;29;9051;-62
2023/03/14 01:13:59;;;;;;;;;;;;;;;26.80;36.78;92939.72;4874074;29;9683;-62
2023/03/14 01:16:34;;;;;;;;;;;;;;;26.79;36.74;92954.81;4871722;29;8987;-62
2023/03/14 01:19:02;;;;;;;;;;;;;;;26.80;36.37;92928.69;4887494;29;8906;-62
2023/03/14 01:21:30;;;;;;;;;;;;;;;26.78;36.32;92920.22;4906035;28;8295;-62
2023/03/14 01:23:58;;;;;;;;;;;;;;;26.80;36.49;92923.16;4964955;28;9622;-62
2023/03/14 01:26:28;;;;;;;;;;;;;;;26.78;36.85;92925.75;4977437;28;7045;-62
2023/03/14 01:28:56;;;;;;;;;;;;;;;26.77;37.01;92919.47;4972532;28;7498;-62
2023/03/14 01:31:30;;;;;;;;;;;;;;;26.77;36.30;92935.31;4975853;28;9136;-61
2023/03/14 01:34:30;;;;;;;;;;;;;;;26.77;36.79;92932.56;4975803;28;8911;-62
2023/03/14 01:36:57;;;;;;;;;;;;;;;26.76;36.35;92926.31;4968269;28;8997;-62
2023/03/14 01:39:23;;;;;;;;;;;;;;;26.73;36.72;92926.69;4998706;28;9131;-62
2023/03/14 01:46:00;;;;;;;;;;;;;;;26.76;36.62;92940.09;4963689;28;7341;-62
2023/03/14 01:48:42;;;;;;;;;;;;;;;26.74;36.84;92928.88;4940900;28;9460;-62
2023/03/14 01:52:01;;;;;;;;;;;;;;;26.74;36.57;92926.13;4961083;28;9318;-62
2023/03/14 01:55:23;;;;;;;;;;;;;;;26.75;37.03;92924.09;4938630;28;7440;-62
2023/03/14 01:58:16;;;;;;;;;;;;;;;26.75;37.18;92926.88;4879905;29;8310;-63
2023/03/14 02:00:42;;;;;;;;;;;;;;;26.74;36.57;92917.84;4873879;29;8814;-62
2023/03/14 02:03:16;;;;;;;;;;;;;;;26.73;36.56;92910.13;4877070;29;9065;-62
2023/03/14 02:05:46;;;;;;;;;;;;;;;26.73;36.77;92901.84;4880856;29;7289;-62
2023/03/14 02:08:30;;;;;;;;;;;;;;;26.74;36.69;92908.84;4883710;29;9005;-62
2023/03/14 02:10:58;;;;;;;;;;;;;;;26.74;36.49;92895.03;4879044;29;8803;-62
2023/03/14 02:13:46;;;;;;;;;;;;;;;26.73;36.45;92886.03;4879839;29;6860;-62
2023/03/14 02:16:22;;;;;;;;;;;;;;;26.74;36.93;92893.03;4880079;29;9263;-62
2023/03/14 02:19:03;;;;;;;;;;;;;;;26.75;36.81;92882.72;4879486;29;8876;-63
2023/03/14 02:21:57;;;;;;;;;;;;;;;26.76;36.72;92884.19;4881191;29;8721;-62
2023/03/14 02:24:53;;;;;;;;;;;;;;;26.75;37.10;92880.69;4904854;29;9086;-62
2023/03/14 02:27:39;;;;;;;;;;;;;;;26.75;36.63;92877.22;4913099;29;9337;-62
2023/03/14 02:30:10;;;;;;;;;;;;;;;26.75;37.02;92860.66;4903279;29;8650;-62
2023/03/14 02:32:42;;;;;;;;;;;;;;;26.74;36.61;92853.66;4980173;28;7259;-62
2023/03/14 02:35:22;;;;;;;;;;;;;;;26.75;36.58;92844.13;4971863;28;9072;-62
2023/03/14 02:38:37;;;;;;;;;;;;;;;26.75;36.58;92849.63;4972266;28;9030;-62
2023/03/14 02:41:03;;;;;;;;;;;;;;;26.72;36.57;92834.16;4965957;28;7029;-62
2023/03/14 02:43:31;;;;;;;;;;;;;;;26.72;36.63;92829.38;4940843;28;7117;-62
2023/03/14 02:46:12;;;;;;;;;;;;;;;26.74;36.45;92828.84;4967627;28;7050;-62
2023/03/14 02:49:08;;;;;;;;;;;;;;;26.73;36.72;92824.63;4969934;28;7122;-62
2023/03/14 02:51:43;;;;;;;;;;;;;;;26.74;37.11;92815.06;4897670;29;7185;-62
2023/03/14 02:54:11;;;;;;;;;;;;;;;26.72;36.29;92818.34;4882304;29;9079;-62
2023/03/14 02:56:49;;;;;;;;;;;;;;;26.72;36.94;92823.84;4894298;29;7459;-62
2023/03/14 02:59:22;;;;;;;;;;;;;;;26.73;37.00;92819.13;4872527;29;8454;-62
2023/03/14 03:01:59;;;;;;;;;;;;;;;26.73;36.41;92813.59;4888871;29;7085;-62
2023/03/14 03:04:26;;;;;;;;;;;;;;;26.72;36.43;92812.81;4871846;29;7067;-62
2023/03/14 03:06:55;;;;;;;;;;;;;;;26.73;36.51;92810.84;4893710;29;8789;-62
2023/03/14 03:09:30;;;;;;;;;;;;;;;26.73;36.52;92808.78;4885439;29;7599;-62
2023/03/14 03:12:00;;;;;;;;;;;;;;;26.71;36.92;92807.84;4881161;29;7279;-62
2023/03/14 03:14:31;;;;;;;;;;;;;;;26.73;36.88;92808.09;4886050;29;7035;-62
2023/03/14 03:17:14;;;;;;;;;;;;;;;26.71;36.93;92800.31;4900412;29;8725;-61
2023/03/14 03:19:40;;;;;;;;;;;;;;;26.71;36.96;92796.81;4928977;29;7264;-62
2023/03/14 03:22:07;;;;;;;;;;;;;;;26.73;36.80;92788.78;4928671;29;7225;-61
2023/03/14 03:24:34;;;;;;;;;;;;;;;26.71;37.18;92783.03;4927368;29;7054;-61
2023/03/14 03:27:00;;;;;;;;;;;;;;;26.71;36.49;92777.50;4897384;29;7247;-61
2023/03/14 03:29:38;;;;;;;;;;;;;;;26.71;36.67;92766.47;4963213;28;7739;-62
2023/03/14 03:32:16;;;;;;;;;;;;;;;26.69;36.29;92769.06;4973616;28;9025;-62
2023/03/14 03:34:44;;;;;;;;;;;;;;;26.66;36.83;92767.44;4972276;28;7036;-62
2023/03/14 03:37:30;;;;;;;;;;;;;;;26.69;36.36;92774.56;4976383;28;7015;-62
2023/03/14 03:40:21;;;;;;;;;;;;;;;26.70;37.02;92765.03;4970292;28;6840;-62
2023/03/14 03:42:48;;;;;;;;;;;;;;;26.69;36.75;92771.81;4979911;28;8749;-62
2023/03/14 03:45:20;;;;;;;;;;;;;;;26.72;36.47;92762.44;4971315;28;8953;-62
2023/03/14 03:47:47;;;;;;;;;;;;;;;26.70;36.42;92756.75;4970653;28;9352;-62
2023/03/14 03:50:28;;;;;;;;;;;;;;;26.68;36.84;92753.81;4969432;28;8988;-61
2023/03/14 03:53:08;;;;;;;;;;;;;;;26.66;36.25;92745.38;4973185;28;7123;-61
2023/03/14 03:55:53;;;;;;;;;;;;;;;26.66;36.83;92750.88;4955059;28;9451;-62
2023/03/14 03:58:29;;;;;;;;;;;;;;;26.64;36.46;92742.44;4981044;28;7090;-61
2023/03/14 04:01:06;;;;;;;;;;;;;;;26.66;36.64;92748.13;4972618;28;10340;-62
2023/03/14 04:03:34;;;;;;;;;;;;;;;26.66;37.05;92753.66;4983665;28;8999;-62
2023/03/14 04:06:07;;;;;;;;;;;;;;;26.65;37.00;92749.41;4969272;28;7241;-62
2023/03/14 04:08:44;;;;;;;;;;;;;;;26.66;36.67;92745.38;4976519;28;9060;-62
2023/03/14 04:11:10;;;;;;;;;;;;;;;26.65;36.38;92741.13;4992053;28;7290;-62
2023/03/14 04:13:37;;;;;;;;;;;;;;;26.64;36.52;92734.88;4973674;28;6952;-62
2023/03/14 04:16:03;;;;;;;;;;;;;;;26.65;36.43;92730.84;4977168;28;7044;-62
2023/03/14 04:18:30;;;;;;;;;;;;;;;26.65;37.08;92732.84;4970887;28;9561;-62
2023/03/14 04:20:58;;;;;;;;;;;;;;;26.65;36.89;92730.09;4955664;28;7228;-62
2023/03/14 04:23:33;;;;;;;;;;;;;;;26.64;36.76;92736.91;4958217;28;7130;-62
2023/03/14 04:26:04;;;;;;;;;;;;;;;26.65;36.75;92732.84;4954364;28;9349;-62
2023/03/14 04:32:13;;;;;;;;;;;;;;;26.63;36.93;92721.66;4974308;28;6981;-62
2023/03/14 04:34:54;;;;;;;;;;;;;;;26.65;36.71;92725.31;4979286;28;7273;-62
2023/03/14 04:37:21;;;;;;;;;;;;;;;26.63;36.40;92716.13;4975826;28;7453;-62
2023/03/14 04:39:55;;;;;;;;;;;;;;;26.63;37.08;92705.09;4989051;28;7456;-62
2023/03/14 04:42:25;;;;;;;;;;;;;;;26.62;36.54;92700.91;4970491;28;7254;-62
2023/03/14 04:45:08;;;;;;;;;;;;;;;26.64;36.43;92690.03;4973761;28;9170;-62
2023/03/14 04:47:40;;;;;;;;;;;;;;;26.61;36.77;92680.84;4967554;28;7358;-62
2023/03/14 04:50:09;;;;;;;;;;;;;;;26.63;36.92;92680.28;4974143;28;9757;-62
2023/03/14 04:52:44;;;;;;;;;;;;;;;26.62;36.43;92670.56;4979158;28;9400;-62
2023/03/14 04:55:12;;;;;;;;;;;;;;;26.62;37.05;92665.75;4976936;28;7270;-62
2023/03/14 04:57:49;;;;;;;;;;;;;;;26.62;36.63;92671.28;4968809;28;8720;-62
2023/03/14 05:00:19;;;;;;;;;;;;;;;26.64;36.71;92667.97;4976919;28;9221;-62
2023/03/14 05:03:00;;;;;;;;;;;;;;;26.63;36.90;92663.75;4994815;28;9484;-62
2023/03/14 05:05:26;;;;;;;;;;;;;;;26.64;36.51;92659.72;4961132;28;9134;-62
2023/03/14 05:07:57;;;;;;;;;;;;;;;26.61;36.63;92658.06;4965095;28;7136;-62
2023/03/14 05:10:25;;;;;;;;;;;;;;;26.65;36.88;92659.13;4990329;28;9040;-62
2023/03/14 05:13:21;;;;;;;;;;;;;;;26.66;36.64;92665.41;4969924;28;10017;-62
2023/03/14 05:15:55;;;;;;;;;;;;;;;26.65;36.55;92663.91;4954783;28;7169;-62
2023/03/14 05:18:21;;;;;;;;;;;;;;;26.66;36.64;92651.59;4971487;28;7034;-63
2023/03/14 05:20:55;;;;;;;;;;;;;;;26.66;36.55;92632.31;4963208;28;7256;-62
2023/03/14 05:23:52;;;;;;;;;;;;;;;26.66;37.07;92640.56;4963745;28;9038;-62
2023/03/14 05:26:22;;;;;;;;;;;;;;;26.67;36.73;92633.75;4898352;29;7117;-62
2023/03/14 05:29:01;;;;;;;;;;;;;;;26.64;36.25;92618.34;4914289;29;9016;-62
2023/03/14 05:31:34;;;;;;;;;;;;;;;26.65;36.81;92622.56;4912000;29;8745;-62
2023/03/14 05:34:33;;;;;;;;;;;;;;;26.62;37.08;92615.41;4901493;29;9548;-61
2023/03/14 05:37:10;;;;;;;;;;;;;;;26.63;36.47;92594.81;4851999;29;9383;-61
2023/03/14 05:39:38;;;;;;;;;;;;;;;26.65;36.85;92575.66;4858024;29;9004;-61
2023/03/14 05:42:21;;;;;;;;;;;;;;;26.62;37.33;92574.75;4853286;29;7816;-61
2023/03/14 05:44:51;;;;;;;;;;;;;;;26.61;36.91;92569.81;4855127;29;9258;-61
2023/03/14 05:47:34;;;;;;;;;;;;;;;26.64;36.45;92577.69;4858038;29;8627;-61
2023/03/14 05:50:14;;;;;;;;;;;;;;;26.62;36.56;92568.53;4858513;29;9654;-61
2023/03/14 05:52:54;;;;;;;;;;;;;;;26.68;37.25;92569.03;4833216;29;8445;-63
2023/03/14 05:55:23;;;;;;;;;;;;;;;26.67;36.65;92562.78;4859331;29;7251;-62
2023/03/14 05:57:50;;;;;;;;;;;;;;;26.64;37.20;92558.38;4855058;29;7060;-62
2023/03/14 06:00:16;;;;;;;;;;;;;;;26.63;37.53;92556.19;4854607;29;9537;-62
2023/03/14 06:02:46;;;;;;;;;;;;;;;26.59;37.79;92551.09;4873321;29;8776;-61
2023/03/14 06:05:15;;;;;;;;;;;;;;;26.62;37.37;92568.53;4908422;29;9660;-61
2023/03/14 06:07:41;;;;;;;;;;;;;;;26.62;37.84;92565.78;4875569;29;7346;-60
2023/03/14 06:10:07;;;;;;;;;;;;;;;26.61;37.30;92547.75;4894640;29;7098;-60
2023/03/14 06:12:33;;;;;;;;;;;;;;;26.57;37.25;92553.66;4934694;28;9080;-61
2023/03/14 06:14:59;;;;;;;;;;;;;;;26.57;36.94;92547.41;4973658;28;9058;-61
2023/03/14 06:17:25;;;;;;;;;;;;;;;26.57;38.46;92550.91;4980823;28;7019;-63
2023/03/14 06:19:51;;;;;;;;;;;;;;;26.60;39.57;92538.03;4974423;28;7283;-60
2023/03/14 06:22:17;;;;;;;;;;;;;;;26.62;38.39;92541.66;4986599;28;9124;-61
2023/03/14 06:25:03;;;;;;;;;;;;;;;26.62;38.41;92536.16;4966727;28;7128;-61
2023/03/14 06:27:30;;;;;;;;;;;;;;;26.63;38.56;92539.66;4971704;28;7298;-61
2023/03/14 06:29:56;;;;;;;;;;;;;;;26.63;38.07;92536.91;4999567;28;7495;-61
2023/03/14 06:32:22;;;;;;;;;;;;;;;26.64;38.14;92546.66;4971656;28;7453;-61
2023/03/14 06:34:48;;;;;;;;;;;;;;;26.59;37.75;92547.59;4979722;28;9145;-60
2023/03/14 06:37:14;;;;;;;;;;;;;;;26.64;37.70;92544.59;4972456;28;7261;-61
2023/03/14 06:39:43;;;;;;;;;;;;;;;26.63;38.07;92545.16;4954466;28;9242;-62
2023/03/14 06:42:09;;;;;;;;;;;;;;;26.62;37.79;92544.44;4995289;28;9117;-62
2023/03/14 06:44:36;;;;;;;;;;;;;;;26.63;37.86;92553.44;4963722;28;9053;-61
2023/03/14 06:47:07;;;;;;;;;;;;;;;26.59;37.29;92550.34;4969852;28;7890;-62
2023/03/14 06:49:38;;;;;;;;;;;;;;;26.59;37.60;92553.84;4979813;28;7031;-62
2023/03/14 06:52:04;;;;;;;;;;;;;;;26.61;37.13;92558.78;4986580;28;7031;-62
2023/03/14 06:54:30;;;;;;;;;;;;;;;26.59;37.78;92558.63;4980573;28;9033;-62
2023/03/14 06:56:56;;;;;;;;;;;;;;;26.58;38.13;92552.38;4972830;28;9124;-61
2023/03/14 06:59:22;;;;;;;;;;;;;;;26.61;37.71;92569.81;4970340;28;7017;-62
2023/03/14 07:01:50;;;;;;;;;;;;;;;26.62;37.94;92571.28;4971247;28;7286;-62
2023/03/14 07:04:17;;;;;;;;;;;;;;;26.61;37.62;92572.56;4970948;28;7378;-62
2023/03/14 07:06:46;;;;;;;;;;;;;;;26.62;37.44;92582.31;4966278;28;8983;-61
2023/03/14 07:09:16;;;;;;;;;;;;;;;26.61;37.88;92595.38;4971357;28;8795;-61
2023/03/14 07:11:45;;;;;;;;;;;;;;;26.61;37.33;92592.63;4971598;28;9454;-62
2023/03/14 07:14:13;;;;;;;;;;;;;;;26.62;37.05;92596.81;4959854;28;9509;-62
2023/03/14 07:16:39;;;;;;;;;;;;;;;26.61;37.72;92609.16;4967677;28;9085;-61
2023/03/14 07:19:05;;;;;;;;;;;;;;;26.62;37.47;92609.91;4968969;28;7529;-62
2023/03/14 07:21:37;;;;;;;;;;;;;;;26.61;37.73;92617.44;4971399;28;8982;-61
2023/03/14 07:24:03;;;;;;;;;;;;;;;26.59;38.13;92622.03;4968758;28;7467;-61
2023/03/14 07:26:31;;;;;;;;;;;;;;;26.59;38.12;92624.78;4986495;28;7050;-61
2023/03/14 07:28:57;;;;;;;;;;;;;;;26.62;37.27;92631.97;4963791;28;9322;-62
2023/03/14 07:31:29;;;;;;;;;;;;;;;26.62;37.27;92620.94;4977065;28;8932;-62
2023/03/14 07:33:58;;;;;;;;;;;;;;;26.62;38.01;92627.16;4973837;28;7282;-62
2023/03/14 07:36:25;;;;;;;;;;;;;;;26.59;37.35;92630.31;4967343;28;7424;-62
2023/03/14 07:38:52;;;;;;;;;;;;;;;26.62;37.18;92635.44;4972641;28;9177;-62
2023/03/14 07:41:22;;;;;;;;;;;;;;;26.61;37.95;92639.50;4973706;28;8104;-62
2023/03/14 07:43:50;;;;;;;;;;;;;;;26.62;38.03;92643.69;4971944;28;9945;-62
2023/03/14 07:46:18;;;;;;;;;;;;;;;26.63;37.91;92638.91;4988538;28;9523;-62
2023/03/14 07:48:44;;;;;;;;;;;;;;;26.62;37.45;92640.22;4976479;28;9206;-61
2023/03/14 07:51:12;;;;;;;;;;;;;;;26.62;37.96;92645.75;4966673;28;9176;-61
2023/03/14 07:53:39;;;;;;;;;;;;;;;26.60;37.79;92653.84;4963209;28;7059;-62
2023/03/14 07:56:05;;;;;;;;;;;;;;;26.61;37.81;92663.56;4968773;28;7030;-62
2023/03/14 07:58:34;;;;;;;;;;;;;;;26.59;37.58;92655.88;4994307;28;7207;-62
2023/03/14 08:01:04;;;;;;;;;;;;;;;26.59;37.47;92666.16;4968280;28;9012;-62
2023/03/14 08:03:38;;;;;;;;;;;;;;;26.58;37.41;92661.91;4986789;28;7065;-62
2023/03/14 08:06:06;;;;;;;;;;;;;;;26.63;37.68;92664.47;4969174;28;9073;-61
2023/03/14 08:08:35;;;;;;;;;;;;;;;26.63;37.94;92670.00;4973158;28;9197;-62
2023/03/14 08:11:08;;;;;;;;;;;;;;;26.61;38.34;92669.09;4966176;28;7250;-62
2023/03/14 08:13:40;;;;;;;;;;;;;;;26.62;37.77;92676.06;4965869;28;7023;-62
2023/03/14 08:16:20;;;;;;;;;;;;;;;26.61;37.94;92674.59;4956622;28;9399;-62
2023/03/14 08:18:51;;;;;;;;;;;;;;;26.61;37.88;92674.59;4963411;28;8684;-62
2023/03/14 08:21:19;;;;;;;;;;;;;;;26.63;38.19;92667.25;4960693;28;7224;-62
2023/03/14 08:23:58;;;;;;;;;;;;;;;26.62;37.76;92668.53;4985554;28;7042;-62
2023/03/14 08:26:28;;;;;;;;;;;;;;;26.61;37.58;92675.34;4971564;28;9534;-62
2023/03/14 08:29:15;;;;;;;;;;;;;;;26.62;37.91;92670.56;4988124;28;7034;-62
2023/03/14 08:31:45;;;;;;;;;;;;;;;26.60;37.90;92676.63;4969846;28;8708;-62
2023/03/14 08:34:13;;;;;;;;;;;;;;;26.62;38.03;92681.59;4954532;28;7301;-62
2023/03/14 08:36:40;;;;;;;;;;;;;;;26.61;37.90;92686.38;4966081;28;8968;-62
2023/03/14 08:39:40;;;;;;;;;;;;;;;26.61;38.17;92680.13;4957987;28;7298;-62
2023/03/14 08:42:14;;;;;;;;;;;;;;;26.60;37.97;92686.94;4934399;28;9525;-62
2023/03/14 08:44:41;;;;;;;;;;;;;;;26.61;38.11;92699.41;4942955;28;9547;-62
2023/03/14 08:47:08;;;;;;;;;;;;;;;26.58;38.42;92689.50;4934510;28;9435;-62
2023/03/14 08:49:45;;;;;;;;;;;;;;;26.58;37.74;92689.50;4951145;28;7010;-62
2023/03/14 08:52:16;;;;;;;;;;;;;;;26.60;37.56;92684.88;4942289;28;9476;-62
2023/03/14 08:54:52;;;;;;;;;;;;;;;26.60;37.83;92684.19;4935176;29;8392;-62
2023/03/14 08:57:21;;;;;;;;;;;;;;;26.59;38.03;92694.47;4941818;29;7063;-62
2023/03/14 08:59:48;;;;;;;;;;;;;;;26.59;37.87;92696.50;4935327;29;7499;-62
2023/03/14 09:02:14;;;;;;;;;;;;;;;26.58;38.17;92692.25;4925047;29;7136;-62
2023/03/14 09:04:40;;;;;;;;;;;;;;;26.59;37.73;92699.25;4951446;29;7110;-62
2023/03/14 09:07:06;;;;;;;;;;;;;;;26.59;38.22;92702.75;4932962;29;7203;-62
2023/03/14 09:09:35;;;;;;;;;;;;;;;26.60;37.93;92709.00;4941012;29;7466;-62
2023/03/14 09:12:11;;;;;;;;;;;;;;;26.59;38.48;92705.50;4951109;29;7260;-62
2023/03/14 09:14:44;;;;;;;;;;;;;;;26.59;37.68;92718.53;4934092;29;7013;-62
2023/03/14 09:17:18;;;;;;;;;;;;;;;26.59;37.77;92713.03;4948874;28;8924;-62
2023/03/14 09:19:44;;;;;;;;;;;;;;;26.55;37.95;92699.63;5003810;28;7300;-62
2023/03/14 09:22:11;;;;;;;;;;;;;;;26.60;37.88;92706.25;4969512;28;7014;-62
2023/03/14 09:24:51;;;;;;;;;;;;;;;26.60;38.29;92697.97;4976237;28;7041;-62
2023/03/14 09:27:24;;;;;;;;;;;;;;;26.59;38.46;92682.69;4962017;28;7029;-62
2023/03/14 09:29:50;;;;;;;;;;;;;;;26.61;38.21;92691.16;4976085;28;7111;-62
2023/03/14 09:32:16;;;;;;;;;;;;;;;26.58;38.37;92690.22;4977465;28;7258;-62
2023/03/14 09:34:52;;;;;;;;;;;;;;;26.60;38.12;92698.69;4969184;28;8786;-61
2023/03/14 09:37:20;;;;;;;;;;;;;;;26.60;37.77;92695.22;4976591;28;7199;-62
2023/03/14 09:39:51;;;;;;;;;;;;;;;26.59;38.34;92696.50;4985019;28;9084;-62
2023/03/14 09:42:25;;;;;;;;;;;;;;;26.61;37.78;92708.44;4964757;28;7316;-62
2023/03/14 09:44:59;;;;;;;;;;;;;;;26.61;38.27;92713.94;5000917;28;8682;-63
2023/03/14 09:47:55;;;;;;;;;;;;;;;26.62;38.33;92709.16;4975853;28;7462;-63
2023/03/14 09:50:21;;;;;;;;;;;;;;;26.63;37.76;92705.09;4932373;28;7105;-63
2023/03/14 09:53:06;;;;;;;;;;;;;;;26.64;37.82;92709.34;4927725;28;7209;-62
2023/03/14 09:55:33;;;;;;;;;;;;;;;26.63;38.12;92707.88;4931727;28;8612;-61
2023/03/14 09:58:09;;;;;;;;;;;;;;;26.63;37.70;92710.63;4922399;28;7034;-62
2023/03/14 10:00:38;;;;;;;;;;;;;;;26.60;37.88;92706.25;4947412;28;8985;-62
2023/03/14 10:03:29;;;;;;;;;;;;;;;26.61;37.87;92719.47;4927000;29;7234;-62
2023/03/14 10:05:59;;;;;;;;;;;;;;;26.62;37.88;92720.91;4938394;28;7249;-62
2023/03/14 10:08:27;;;;;;;;;;;;;;;26.62;38.52;92722.97;4937183;28;7919;-62
2023/03/14 10:10:54;;;;;;;;;;;;;;;26.62;38.08;92717.44;4939175;28;7270;-62
2023/03/14 10:13:33;;;;;;;;;;;;;;;26.60;38.00;92728.31;4930858;28;7107;-62
2023/03/14 10:16:15;;;;;;;;;;;;;;;26.60;38.00;92733.81;4935879;28;8499;-62
2023/03/14 10:19:05;;;;;;;;;;;;;;;26.59;37.81;92741.34;4928711;28;9028;-62
2023/03/14 10:21:39;;;;;;;;;;;;;;;26.59;38.48;92735.09;4946520;28;7214;-62
2023/03/14 10:24:28;;;;;;;;;;;;;;;26.61;38.32;92746.28;4922767;28;9461;-62
2023/03/14 10:27:02;;;;;;;;;;;;;;;26.61;38.41;92738.75;4942899;28;7571;-62
2023/03/14 10:29:32;;;;;;;;;;;;;;;26.59;38.69;92746.13;4971576;28;8751;-62
2023/03/14 10:32:19;;;;;;;;;;;;;;;26.60;38.12;92745.56;4983338;28;7239;-62
2023/03/14 10:35:08;;;;;;;;;;;;;;;26.60;37.67;92755.88;4966929;28;7019;-63
2023/03/14 10:38:16;;;;;;;;;;;;;;;26.61;38.01;92762.84;4957353;28;9115;-62
2023/03/14 10:40:49;;;;;;;;;;;;;;;26.60;38.26;92770.38;4895235;29;7445;-62
2023/03/14 10:43:26;;;;;;;;;;;;;;;26.59;38.17;92768.91;4886742;29;8260;-62
2023/03/14 10:46:01;;;;;;;;;;;;;;;26.59;37.81;92776.47;4877559;29;7251;-61
2023/03/14 10:48:33;;;;;;;;;;;;;;;26.60;38.19;92778.66;4881170;29;7573;-62
2023/03/14 10:51:17;;;;;;;;;;;;;;;26.60;38.37;92784.16;4881117;29;7060;-62
2023/03/14 10:54:19;;;;;;;;;;;;;;;26.57;38.23;92790.81;4878918;29;8175;-62
2023/03/14 10:56:45;;;;;;;;;;;;;;;26.57;38.61;92796.31;4819900;29;9012;-61
2023/03/14 10:59:14;;;;;;;;;;;;;;;26.56;37.79;92808.63;4820846;29;9048;-61
2023/03/14 11:02:08;;;;;;;;;;;;;;;26.56;38.13;92821.69;4805269;29;7383;-62
2023/03/14 11:04:53;;;;;;;;;;;;;;;26.56;38.11;92836.19;4800021;29;9112;-62
2023/03/14 11:07:47;;;;;;;;;;;;;;;26.56;38.50;92838.97;4822312;29;8876;-62
2023/03/14 11:10:40;;;;;;;;;;;;;;;26.58;38.35;92836.38;4739228;29;7004;-62
2023/03/14 11:13:29;;;;;;;;;;;;;;;26.57;38.20;92839.69;4832343;29;9376;-62
2023/03/14 11:16:05;;;;;;;;;;;;;;;26.56;37.96;92844.47;4821788;29;7056;-62
2023/03/14 11:18:43;;;;;;;;;;;;;;;26.56;37.77;92861.03;4837117;29;8367;-62
2023/03/14 11:21:59;;;;;;;;;;;;;;;26.55;38.15;92861.59;4841434;29;9013;-62
2023/03/14 11:24:51;;;;;;;;;;;;;;;26.54;38.77;92873.88;4840955;29;9017;-61
2023/03/14 11:27:41;;;;;;;;;;;;;;;26.53;37.92;92878.69;4836486;29;7185;-62
2023/03/14 11:30:47;;;;;;;;;;;;;;;26.53;38.02;92891.72;4839572;29;7225;-61
2023/03/14 11:33:21;;;;;;;;;;;;;;;26.53;38.22;92895.22;4863771;29;9134;-61
2023/03/14 11:35:57;;;;;;;;;;;;;;;26.53;38.78;92902.75;4916534;29;8984;-62
2023/03/14 11:38:58;;;;;;;;;;;;;;;26.51;38.84;92921.88;4925445;29;7015;-62
2023/03/14 11:41:33;;;;;;;;;;;;;;;26.48;38.10;92914.69;4893567;29;9362;-62
2023/03/14 11:44:22;;;;;;;;;;;;;;;26.49;38.27;92927.94;4914686;29;7176;-63
2023/03/14 11:47:18;;;;;;;;;;;;;;;26.47;38.20;92927.03;4937375;28;7165;-61
2023/03/14 11:49:56;;;;;;;;;;;;;;;26.48;38.70;92931.25;4972337;28;8737;-62
2023/03/14 11:52:43;;;;;;;;;;;;;;;26.50;37.91;92945.22;4970302;28;7231;-62
2023/03/14 11:55:32;;;;;;;;;;;;;;;26.50;37.87;92961.75;4956053;28;10163;-62
2023/03/14 11:58:44;;;;;;;;;;;;;;;26.49;38.70;92966.53;4941250;28;7225;-62
2023/03/14 12:01:36;;;;;;;;;;;;;;;26.52;37.79;92964.69;4972766;28;7260;-62
2023/03/14 12:04:35;;;;;;;;;;;;;;;26.54;37.92;92962.13;4980069;28;8943;-62
2023/03/14 12:10:48;;;;;;;;;;;;;;;26.54;37.86;92975.91;4972554;28;7119;-62
2023/03/14 12:13:17;;;;;;;;;;;;;;;26.53;38.15;92991.75;4963957;28;9055;-62
2023/03/14 12:16:22;;;;;;;;;;;;;;;26.52;38.47;92984.75;4955585;28;7898;-62
2023/03/14 12:18:54;;;;;;;;;;;;;;;26.51;38.30;92999.09;4910474;29;7281;-62
2023/03/14 12:21:43;;;;;;;;;;;;;;;26.50;38.43;92984.56;4899248;29;7301;-63
2023/03/14 12:25:00;;;;;;;;;;;;;;;26.51;38.63;92990.81;4898952;29;8697;-63
2023/03/14 12:27:45;;;;;;;;;;;;;;;26.51;38.18;92990.81;4907066;29;7230;-62
2023/03/14 12:30:34;;;;;;;;;;;;;;;26.52;38.53;92998.53;4910346;29;8368;-62
2023/03/14 12:33:39;;;;;;;;;;;;;;;26.51;37.80;92997.03;4897362;29;9130;-61
2023/03/14 12:36:49;;;;;;;;;;;;;;;26.52;38.11;93006.06;4887395;29;7206;-62
2023/03/14 12:39:49;;;;;;;;;;;;;;;26.53;38.56;93018.56;4890345;29;7036;-63
2023/03/14 12:42:53;;;;;;;;;;;;;;;26.54;38.05;93011.75;4907640;29;9507;-62
2023/03/14 12:46:02;;;;;;;;;;;;;;;26.54;38.29;93017.28;4894715;29;9952;-63
2023/03/14 12:48:40;;;;;;;;;;;;;;;26.54;37.89;93028.31;4915033;29;7932;-63
2023/03/14 12:51:43;;;;;;;;;;;;;;;26.52;37.77;93039.88;4932180;29;9369;-61
2023/03/14 12:54:50;;;;;;;;;;;;;;;26.53;38.34;93057.19;4928815;29;7262;-61
2023/03/14 12:57:54;;;;;;;;;;;;;;;26.52;38.18;93069.47;4905260;29;7270;-61
2023/03/14 13:00:30;;;;;;;;;;;;;;;26.52;38.50;93070.22;4917428;29;8816;-62
2023/03/14 13:03:37;;;;;;;;;;;;;;;26.55;38.03;93068.38;4934591;28;8634;-62
2023/03/14 13:06:05;;;;;;;;;;;;;;;26.53;38.15;93079.97;4872931;29;9213;-62
2023/03/14 13:08:42;;;;;;;;;;;;;;;26.55;38.63;93091.19;4879319;29;7046;-62
2023/03/14 13:11:13;;;;;;;;;;;;;;;26.53;37.70;93093.03;4880185;29;9094;-63
2023/03/14 13:13:59;;;;;;;;;;;;;;;26.55;38.40;93099.47;4886284;29;7292;-62
2023/03/14 13:16:40;;;;;;;;;;;;;;;26.56;38.66;93106.44;4908911;29;7046;-63
2023/03/14 13:19:20;;;;;;;;;;;;;;;26.56;37.99;93114.72;4910352;29;9608;-63
2023/03/14 13:22:19;;;;;;;;;;;;;;;26.57;37.87;93120.97;4883451;29;9154;-62
2023/03/14 13:25:22;;;;;;;;;;;;;;;26.52;37.93;93128.13;4910863;29;9074;-63
2023/03/14 13:28:03;;;;;;;;;;;;;;;26.48;38.47;93130.50;4876730;29;9189;-63
2023/03/14 13:30:42;;;;;;;;;;;;;;;26.49;37.92;93125.72;4870584;29;9356;-63
2023/03/14 13:33:18;;;;;;;;;;;;;;;26.50;38.02;93130.69;4872131;29;7345;-62
2023/03/14 13:36:05;;;;;;;;;;;;;;;26.51;37.93;93145.94;4869675;29;7222;-63
2023/03/14 13:38:35;;;;;;;;;;;;;;;26.52;38.65;93166.00;4866625;29;7347;-63
2023/03/14 13:41:14;;;;;;;;;;;;;;;26.54;38.44;93161.41;4846106;29;7614;-62
2023/03/14 13:43:43;;;;;;;;;;;;;;;26.53;38.33;93181.25;4960867;28;8589;-62
2023/03/14 13:46:20;;;;;;;;;;;;;;;26.54;38.05;93174.44;4943011;29;7028;-62
2023/03/14 13:49:04;;;;;;;;;;;;;;;26.53;38.05;93187.53;4935043;29;9176;-62
2023/03/14 13:51:43;;;;;;;;;;;;;;;26.54;37.78;93207.53;4950422;29;9029;-62
2023/03/14 13:54:31;;;;;;;;;;;;;;;26.57;38.57;93211.97;4950292;28;7281;-62
2023/03/14 13:57:06;;;;;;;;;;;;;;;26.55;38.12;93220.06;4952159;28;7270;-63
2023/03/14 13:59:40;;;;;;;;;;;;;;;26.55;38.20;93217.31;4940694;29;7258;-63